sensor_id;sensor_type;location;lat;lon;timestamp;temperature;humidity
55211;DHT22;41082;52.822;6.666;2022-09-12T00:00:40;15.30;99.90
55211;DHT22;41082;52.822;6.666;2022-09-12T00:03:06;15.30;99.90
55211;DHT22;41082;52.822;6.666;2022-09-12T00:05:31;15.30;99.90
55211;DHT22;41082;52.822;6.666;2022-09-12T00:07:58;15.30;99.90
55211;DHT22;41082;52.822;6.666;2022-09-12T00:10:24;15.30;99.90
55211;DHT22;41082;52.822;6.666;2022-09-12T00:12:50;15.20;99.90
55211;DHT22;41082;52.822;6.666;2022-09-12T00:15:16;15.20;99.90
55211;DHT22;41082;52.822;6.666;2022-09-12T00:17:42;15.20;99.90
55211;DHT22;41082;52.822;6.666;2022-09-12T00:20:08;15.20;99.90
55211;DHT22;41082;52.822;6.666;2022-09-12T00:22:35;15.10;99.90
55211;DHT22;41082;52.822;6.666;2022-09-12T00:25:01;15.10;99.90
55211;DHT22;41082;52.822;6.666;2022-09-12T00:27:27;15.10;99.90
55211;DHT22;41082;52.822;6.666;2022-09-12T00:29:53;15.00;99.90
55211;DHT22;41082;52.822;6.666;2022-09-12T00:32:19;15.00;99.90
55211;DHT22;41082;52.822;6.666;2022-09-12T00:34:45;15.00;99.90
55211;DHT22;41082;52.822;6.666;2022-09-12T00:37:11;15.00;99.90
55211;DHT22;41082;52.822;6.666;2022-09-12T00:39:36;14.90;99.90
55211;DHT22;41082;52.822;6.666;2022-09-12T00:42:02;14.90;99.90
55211;DHT22;41082;52.822;6.666;2022-09-12T00:46:59;14.90;99.90
55211;DHT22;41082;52.822;6.666;2022-09-12T00:54:33;14.80;99.90
55211;DHT22;41082;52.822;6.666;2022-09-12T00:57:03;14.90;99.90
55211;DHT22;41082;52.822;6.666;2022-09-12T00:59:41;14.80;99.90
55211;DHT22;41082;52.822;6.666;2022-09-12T01:02:09;14.80;99.90
55211;DHT22;41082;52.822;6.666;2022-09-12T01:04:36;14.80;99.90
55211;DHT22;41082;52.822;6.666;2022-09-12T01:07:04;14.80;99.90
55211;DHT22;41082;52.822;6.666;2022-09-12T01:09:31;14.70;99.90
55211;DHT22;41082;52.822;6.666;2022-09-12T01:11:57;14.70;99.90
55211;DHT22;41082;52.822;6.666;2022-09-12T01:14:23;14.70;99.90
55211;DHT22;41082;52.822;6.666;2022-09-12T01:16:49;14.70;99.90
55211;DHT22;41082;52.822;6.666;2022-09-12T01:25:41;14.60;99.90
55211;DHT22;41082;52.822;6.666;2022-09-12T01:28:25;14.60;99.90
55211;DHT22;41082;52.822;6.666;2022-09-12T01:31:10;14.60;99.90
55211;DHT22;41082;52.822;6.666;2022-09-12T01:38:51;14.50;99.90
55211;DHT22;41082;52.822;6.666;2022-09-12T01:46:57;14.40;99.90
55211;DHT22;41082;52.822;6.666;2022-09-12T01:49:23;14.40;99.90
55211;DHT22;41082;52.822;6.666;2022-09-12T01:51:57;14.40;99.90
55211;DHT22;41082;52.822;6.666;2022-09-12T01:57:09;14.30;99.90
55211;DHT22;41082;52.822;6.666;2022-09-12T01:59:40;14.30;99.90
55211;DHT22;41082;52.822;6.666;2022-09-12T02:02:24;14.30;99.90
55211;DHT22;41082;52.822;6.666;2022-09-12T02:05:08;14.30;99.90
55211;DHT22;41082;52.822;6.666;2022-09-12T02:10:17;14.20;99.90
55211;DHT22;41082;52.822;6.666;2022-09-12T02:13:01;14.20;99.90
55211;DHT22;41082;52.822;6.666;2022-09-12T02:15:39;14.20;99.90
55211;DHT22;41082;52.822;6.666;2022-09-12T02:18:07;14.20;99.90
55211;DHT22;41082;52.822;6.666;2022-09-12T02:20:37;14.20;99.90
55211;DHT22;41082;52.822;6.666;2022-09-12T02:23:08;14.20;99.90
55211;DHT22;41082;52.822;6.666;2022-09-12T02:25:37;14.20;99.90
55211;DHT22;41082;52.822;6.666;2022-09-12T02:28:13;14.20;99.90
55211;DHT22;41082;52.822;6.666;2022-09-12T02:31:33;14.20;99.90
55211;DHT22;41082;52.822;6.666;2022-09-12T02:33:50;14.30;99.90
55211;DHT22;41082;52.822;6.666;2022-09-12T02:36:31;14.30;99.90
55211;DHT22;41082;52.822;6.666;2022-09-12T02:38:58;14.30;99.90
55211;DHT22;41082;52.822;6.666;2022-09-12T02:41:25;14.30;99.90
55211;DHT22;41082;52.822;6.666;2022-09-12T02:43:52;14.40;99.90
55211;DHT22;41082;52.822;6.666;2022-09-12T02:46:26;14.40;99.90
55211;DHT22;41082;52.822;6.666;2022-09-12T02:48:53;14.40;99.90
55211;DHT22;41082;52.822;6.666;2022-09-12T02:51:20;14.40;99.90
55211;DHT22;41082;52.822;6.666;2022-09-12T02:53:45;14.40;99.90
55211;DHT22;41082;52.822;6.666;2022-09-12T02:56:17;14.50;99.90
55211;DHT22;41082;52.822;6.666;2022-09-12T02:58:45;14.50;99.90
55211;DHT22;41082;52.822;6.666;2022-09-12T03:06:23;14.50;99.90
55211;DHT22;41082;52.822;6.666;2022-09-12T03:09:15;14.50;99.90
55211;DHT22;41082;52.822;6.666;2022-09-12T03:14:28;14.50;99.90
55211;DHT22;41082;52.822;6.666;2022-09-12T03:17:13;14.50;99.90
55211;DHT22;41082;52.822;6.666;2022-09-12T03:20:09;14.50;99.90
55211;DHT22;41082;52.822;6.666;2022-09-12T03:22:55;14.60;99.90
55211;DHT22;41082;52.822;6.666;2022-09-12T03:25:36;14.60;99.90
55211;DHT22;41082;52.822;6.666;2022-09-12T03:28:08;14.50;99.90
55211;DHT22;41082;52.822;6.666;2022-09-12T03:30:41;14.60;99.90
55211;DHT22;41082;52.822;6.666;2022-09-12T03:33:14;14.60;99.90
55211;DHT22;41082;52.822;6.666;2022-09-12T03:35:40;14.60;99.90
55211;DHT22;41082;52.822;6.666;2022-09-12T03:38:06;14.60;99.90
55211;DHT22;41082;52.822;6.666;2022-09-12T03:40:36;14.60;99.90
55211;DHT22;41082;52.822;6.666;2022-09-12T03:43:03;14.60;99.90
55211;DHT22;41082;52.822;6.666;2022-09-12T03:45:29;14.60;99.90
55211;DHT22;41082;52.822;6.666;2022-09-12T03:47:54;14.60;99.90
55211;DHT22;41082;52.822;6.666;2022-09-12T03:50:21;14.60;99.90
55211;DHT22;41082;52.822;6.666;2022-09-12T03:52:46;14.60;99.90
55211;DHT22;41082;52.822;6.666;2022-09-12T03:55:12;14.60;99.90
55211;DHT22;41082;52.822;6.666;2022-09-12T03:57:38;14.60;99.90
55211;DHT22;41082;52.822;6.666;2022-09-12T04:00:05;14.60;99.90
55211;DHT22;41082;52.822;6.666;2022-09-12T04:02:32;14.60;99.90
55211;DHT22;41082;52.822;6.666;2022-09-12T04:04:57;14.60;99.90
55211;DHT22;41082;52.822;6.666;2022-09-12T04:07:23;14.60;99.90
55211;DHT22;41082;52.822;6.666;2022-09-12T04:09:49;14.50;99.90
55211;DHT22;41082;52.822;6.666;2022-09-12T04:12:14;14.40;99.90
55211;DHT22;41082;52.822;6.666;2022-09-12T04:14:40;14.40;99.90
55211;DHT22;41082;52.822;6.666;2022-09-12T04:17:06;14.40;99.90
55211;DHT22;41082;52.822;6.666;2022-09-12T04:19:32;14.30;99.90
55211;DHT22;41082;52.822;6.666;2022-09-12T04:21:57;14.30;99.90
55211;DHT22;41082;52.822;6.666;2022-09-12T04:24:23;14.30;99.90
55211;DHT22;41082;52.822;6.666;2022-09-12T04:26:49;14.20;99.90
55211;DHT22;41082;52.822;6.666;2022-09-12T04:29:14;14.20;99.90
55211;DHT22;41082;52.822;6.666;2022-09-12T04:31:41;14.20;99.90
55211;DHT22;41082;52.822;6.666;2022-09-12T04:34:07;14.10;99.90
55211;DHT22;41082;52.822;6.666;2022-09-12T04:36:33;14.10;99.90
55211;DHT22;41082;52.822;6.666;2022-09-12T04:39:00;14.10;99.90
55211;DHT22;41082;52.822;6.666;2022-09-12T04:41:28;14.00;99.90
55211;DHT22;41082;52.822;6.666;2022-09-12T04:44:04;14.00;99.90
55211;DHT22;41082;52.822;6.666;2022-09-12T04:46:33;14.00;99.90
55211;DHT22;41082;52.822;6.666;2022-09-12T04:48:59;14.00;99.90
55211;DHT22;41082;52.822;6.666;2022-09-12T04:51:28;14.00;99.90
55211;DHT22;41082;52.822;6.666;2022-09-12T04:53:56;14.00;99.90
55211;DHT22;41082;52.822;6.666;2022-09-12T04:56:23;14.00;99.90
55211;DHT22;41082;52.822;6.666;2022-09-12T04:58:49;13.90;99.90
55211;DHT22;41082;52.822;6.666;2022-09-12T05:01:17;13.90;99.90
55211;DHT22;41082;52.822;6.666;2022-09-12T05:03:44;13.90;99.90
55211;DHT22;41082;52.822;6.666;2022-09-12T05:06:25;13.90;99.90
55211;DHT22;41082;52.822;6.666;2022-09-12T05:08:52;13.90;99.90
55211;DHT22;41082;52.822;6.666;2022-09-12T05:11:38;13.90;99.90
55211;DHT22;41082;52.822;6.666;2022-09-12T05:14:04;13.90;99.90
55211;DHT22;41082;52.822;6.666;2022-09-12T05:16:29;13.90;99.90
55211;DHT22;41082;52.822;6.666;2022-09-12T05:18:58;13.90;99.90
55211;DHT22;41082;52.822;6.666;2022-09-12T05:21:25;13.90;99.90
55211;DHT22;41082;52.822;6.666;2022-09-12T05:23:52;13.90;99.90
55211;DHT22;41082;52.822;6.666;2022-09-12T05:26:19;13.90;99.90
55211;DHT22;41082;52.822;6.666;2022-09-12T05:28:46;14.00;99.90
55211;DHT22;41082;52.822;6.666;2022-09-12T05:33:41;14.10;99.90
55211;DHT22;41082;52.822;6.666;2022-09-12T05:36:10;14.10;99.90
55211;DHT22;41082;52.822;6.666;2022-09-12T05:38:36;14.20;99.90
55211;DHT22;41082;52.822;6.666;2022-09-12T05:41:13;14.20;99.90
55211;DHT22;41082;52.822;6.666;2022-09-12T05:43:41;14.30;99.90
55211;DHT22;41082;52.822;6.666;2022-09-12T05:46:09;14.40;99.90
55211;DHT22;41082;52.822;6.666;2022-09-12T05:48:36;14.40;99.90
55211;DHT22;41082;52.822;6.666;2022-09-12T05:51:07;14.50;99.90
55211;DHT22;41082;52.822;6.666;2022-09-12T05:53:34;14.50;99.90
55211;DHT22;41082;52.822;6.666;2022-09-12T05:56:08;14.60;99.90
55211;DHT22;41082;52.822;6.666;2022-09-12T05:58:35;14.70;99.90
55211;DHT22;41082;52.822;6.666;2022-09-12T06:01:09;14.70;99.90
55211;DHT22;41082;52.822;6.666;2022-09-12T06:03:46;14.80;99.90
55211;DHT22;41082;52.822;6.666;2022-09-12T06:06:14;14.80;99.90
55211;DHT22;41082;52.822;6.666;2022-09-12T06:08:41;14.90;99.90
55211;DHT22;41082;52.822;6.666;2022-09-12T06:11:10;14.90;99.90
55211;DHT22;41082;52.822;6.666;2022-09-12T06:13:36;15.00;99.90
55211;DHT22;41082;52.822;6.666;2022-09-12T06:16:08;15.00;99.90
55211;DHT22;41082;52.822;6.666;2022-09-12T06:18:35;15.00;99.90
55211;DHT22;41082;52.822;6.666;2022-09-12T06:21:11;15.10;99.90
55211;DHT22;41082;52.822;6.666;2022-09-12T06:23:38;15.10;99.90
55211;DHT22;41082;52.822;6.666;2022-09-12T06:26:06;15.10;99.90
55211;DHT22;41082;52.822;6.666;2022-09-12T06:28:40;15.20;99.90
55211;DHT22;41082;52.822;6.666;2022-09-12T06:31:07;15.30;99.90
55211;DHT22;41082;52.822;6.666;2022-09-12T06:33:34;15.30;99.90
55211;DHT22;41082;52.822;6.666;2022-09-12T06:36:05;15.30;99.90
55211;DHT22;41082;52.822;6.666;2022-09-12T06:38:32;15.40;99.90
55211;DHT22;41082;52.822;6.666;2022-09-12T06:40:58;15.40;99.90
55211;DHT22;41082;52.822;6.666;2022-09-12T06:43:25;15.50;99.90
55211;DHT22;41082;52.822;6.666;2022-09-12T06:45:50;15.50;99.90
55211;DHT22;41082;52.822;6.666;2022-09-12T06:48:16;15.50;99.90
55211;DHT22;41082;52.822;6.666;2022-09-12T06:50:42;15.60;99.90
55211;DHT22;41082;52.822;6.666;2022-09-12T06:53:08;15.60;99.90
55211;DHT22;41082;52.822;6.666;2022-09-12T06:55:34;15.70;99.90
55211;DHT22;41082;52.822;6.666;2022-09-12T06:58:00;15.70;99.90
55211;DHT22;41082;52.822;6.666;2022-09-12T07:00:25;15.70;99.90
55211;DHT22;41082;52.822;6.666;2022-09-12T07:02:54;15.80;99.90
55211;DHT22;41082;52.822;6.666;2022-09-12T07:05:21;15.90;99.90
55211;DHT22;41082;52.822;6.666;2022-09-12T07:07:47;15.90;99.90
55211;DHT22;41082;52.822;6.666;2022-09-12T07:10:13;16.00;99.90
55211;DHT22;41082;52.822;6.666;2022-09-12T07:12:39;16.00;99.90
55211;DHT22;41082;52.822;6.666;2022-09-12T07:15:04;16.10;99.90
55211;DHT22;41082;52.822;6.666;2022-09-12T07:17:30;16.10;99.90
55211;DHT22;41082;52.822;6.666;2022-09-12T07:19:56;16.10;99.90
55211;DHT22;41082;52.822;6.666;2022-09-12T07:22:21;16.10;99.90
55211;DHT22;41082;52.822;6.666;2022-09-12T07:24:47;16.20;99.90
55211;DHT22;41082;52.822;6.666;2022-09-12T07:27:13;16.20;99.90
55211;DHT22;41082;52.822;6.666;2022-09-12T07:29:38;16.20;99.90
55211;DHT22;41082;52.822;6.666;2022-09-12T07:32:05;16.20;99.90
55211;DHT22;41082;52.822;6.666;2022-09-12T07:34:31;16.30;99.90
55211;DHT22;41082;52.822;6.666;2022-09-12T07:36:56;16.40;99.90
55211;DHT22;41082;52.822;6.666;2022-09-12T07:39:23;16.40;99.90
55211;DHT22;41082;52.822;6.666;2022-09-12T07:41:48;16.50;99.90
55211;DHT22;41082;52.822;6.666;2022-09-12T07:44:14;16.50;99.90
55211;DHT22;41082;52.822;6.666;2022-09-12T07:46:39;16.60;99.90
55211;DHT22;41082;52.822;6.666;2022-09-12T07:49:05;16.60;99.90
55211;DHT22;41082;52.822;6.666;2022-09-12T07:51:30;16.80;99.90
55211;DHT22;41082;52.822;6.666;2022-09-12T07:53:56;16.80;99.90
55211;DHT22;41082;52.822;6.666;2022-09-12T07:56:23;16.90;99.90
55211;DHT22;41082;52.822;6.666;2022-09-12T07:58:49;16.90;99.90
55211;DHT22;41082;52.822;6.666;2022-09-12T08:01:19;17.00;99.90
55211;DHT22;41082;52.822;6.666;2022-09-12T08:03:51;17.00;99.90
55211;DHT22;41082;52.822;6.666;2022-09-12T08:06:19;17.10;99.90
55211;DHT22;41082;52.822;6.666;2022-09-12T08:08:46;17.10;99.90
55211;DHT22;41082;52.822;6.666;2022-09-12T08:11:14;17.20;99.90
55211;DHT22;41082;52.822;6.666;2022-09-12T08:13:41;17.20;99.90
55211;DHT22;41082;52.822;6.666;2022-09-12T08:16:11;17.30;99.90
55211;DHT22;41082;52.822;6.666;2022-09-12T08:18:38;17.30;99.90
55211;DHT22;41082;52.822;6.666;2022-09-12T08:21:16;17.40;99.90
55211;DHT22;41082;52.822;6.666;2022-09-12T08:23:42;17.40;99.90
55211;DHT22;41082;52.822;6.666;2022-09-12T08:26:10;17.50;99.90
55211;DHT22;41082;52.822;6.666;2022-09-12T08:28:36;17.60;99.90
55211;DHT22;41082;52.822;6.666;2022-09-12T08:31:06;17.60;99.90
55211;DHT22;41082;52.822;6.666;2022-09-12T08:33:32;17.70;99.90
55211;DHT22;41082;52.822;6.666;2022-09-12T08:36:09;17.80;99.90
55211;DHT22;41082;52.822;6.666;2022-09-12T08:38:36;17.90;99.90
55211;DHT22;41082;52.822;6.666;2022-09-12T08:46:31;18.10;99.90
55211;DHT22;41082;52.822;6.666;2022-09-12T08:48:59;18.20;99.90
55211;DHT22;41082;52.822;6.666;2022-09-12T08:51:26;18.20;99.90
55211;DHT22;41082;52.822;6.666;2022-09-12T08:53:55;18.30;99.90
55211;DHT22;41082;52.822;6.666;2022-09-12T08:56:21;18.30;99.90
55211;DHT22;41082;52.822;6.666;2022-09-12T08:58:47;18.40;99.90
55211;DHT22;41082;52.822;6.666;2022-09-12T09:01:25;18.50;99.90
55211;DHT22;41082;52.822;6.666;2022-09-12T09:12:43;18.90;99.90
55211;DHT22;41082;52.822;6.666;2022-09-12T09:15:33;19.10;99.90
55211;DHT22;41082;52.822;6.666;2022-09-12T09:20:51;19.40;99.90
55211;DHT22;41082;52.822;6.666;2022-09-12T09:26:03;19.50;99.90
55211;DHT22;41082;52.822;6.666;2022-09-12T09:28:44;19.60;99.90
55211;DHT22;41082;52.822;6.666;2022-09-12T09:31:19;19.70;99.90
55211;DHT22;41082;52.822;6.666;2022-09-12T09:33:53;19.80;99.90
55211;DHT22;41082;52.822;6.666;2022-09-12T09:36:20;19.90;99.90
55211;DHT22;41082;52.822;6.666;2022-09-12T09:39:09;19.90;99.90
55211;DHT22;41082;52.822;6.666;2022-09-12T09:42:17;20.00;99.90
55211;DHT22;41082;52.822;6.666;2022-09-12T09:44:45;20.00;99.90
55211;DHT22;41082;52.822;6.666;2022-09-12T09:47:13;20.10;99.90
55211;DHT22;41082;52.822;6.666;2022-09-12T09:49:40;20.30;99.90
55211;DHT22;41082;52.822;6.666;2022-09-12T09:52:07;20.40;99.90
55211;DHT22;41082;52.822;6.666;2022-09-12T09:54:49;20.50;99.90
55211;DHT22;41082;52.822;6.666;2022-09-12T10:00:30;20.60;99.90
55211;DHT22;41082;52.822;6.666;2022-09-12T10:03:00;20.70;99.90
55211;DHT22;41082;52.822;6.666;2022-09-12T10:05:28;20.80;99.90
55211;DHT22;41082;52.822;6.666;2022-09-12T10:07:53;20.90;99.90
55211;DHT22;41082;52.822;6.666;2022-09-12T10:10:20;21.10;99.90
55211;DHT22;41082;52.822;6.666;2022-09-12T10:12:50;21.20;99.90
55211;DHT22;41082;52.822;6.666;2022-09-12T10:15:21;21.40;99.90
55211;DHT22;41082;52.822;6.666;2022-09-12T10:17:49;21.50;99.90
55211;DHT22;41082;52.822;6.666;2022-09-12T10:20:39;21.70;99.90
55211;DHT22;41082;52.822;6.666;2022-09-12T10:23:29;21.70;99.90
55211;DHT22;41082;52.822;6.666;2022-09-12T10:25:59;21.90;99.90
55211;DHT22;41082;52.822;6.666;2022-09-12T10:28:35;21.90;99.90
55211;DHT22;41082;52.822;6.666;2022-09-12T10:31:04;21.90;99.90
55211;DHT22;41082;52.822;6.666;2022-09-12T10:33:36;22.00;99.90
55211;DHT22;41082;52.822;6.666;2022-09-12T10:36:05;21.90;99.90
55211;DHT22;41082;52.822;6.666;2022-09-12T10:38:31;22.00;99.90
55211;DHT22;41082;52.822;6.666;2022-09-12T10:41:06;22.00;99.90
55211;DHT22;41082;52.822;6.666;2022-09-12T10:46:21;22.00;99.90
55211;DHT22;41082;52.822;6.666;2022-09-12T10:49:52;22.00;99.90
55211;DHT22;41082;52.822;6.666;2022-09-12T10:52:24;22.00;99.90
55211;DHT22;41082;52.822;6.666;2022-09-12T10:54:51;21.90;99.90
55211;DHT22;41082;52.822;6.666;2022-09-12T10:57:50;21.90;99.90
55211;DHT22;41082;52.822;6.666;2022-09-12T11:00:19;22.00;99.90
55211;DHT22;41082;52.822;6.666;2022-09-12T11:03:14;22.00;99.90
55211;DHT22;41082;52.822;6.666;2022-09-12T11:05:50;22.00;99.90
55211;DHT22;41082;52.822;6.666;2022-09-12T11:09:01;22.10;99.90
55211;DHT22;41082;52.822;6.666;2022-09-12T11:11:55;22.20;99.90
55211;DHT22;41082;52.822;6.666;2022-09-12T11:14:43;22.20;99.90
55211;DHT22;41082;52.822;6.666;2022-09-12T11:20:20;22.40;99.90
55211;DHT22;41082;52.822;6.666;2022-09-12T11:25:58;22.50;99.90
55211;DHT22;41082;52.822;6.666;2022-09-12T11:33:44;22.70;99.90
55211;DHT22;41082;52.822;6.666;2022-09-12T11:38:50;23.00;99.90
55211;DHT22;41082;52.822;6.666;2022-09-12T11:43:56;23.20;99.70
55211;DHT22;41082;52.822;6.666;2022-09-12T11:46:35;23.30;99.00
55211;DHT22;41082;52.822;6.666;2022-09-12T11:52:23;23.30;98.70
55211;DHT22;41082;52.822;6.666;2022-09-12T11:54:41;23.30;98.60
55211;DHT22;41082;52.822;6.666;2022-09-12T12:02:29;23.20;98.00
55211;DHT22;41082;52.822;6.666;2022-09-12T12:05:03;23.30;98.20
55211;DHT22;41082;52.822;6.666;2022-09-12T12:07:56;23.30;98.40
55211;DHT22;41082;52.822;6.666;2022-09-12T12:12:51;23.30;98.30
55211;DHT22;41082;52.822;6.666;2022-09-12T12:15:20;23.30;97.90
55211;DHT22;41082;52.822;6.666;2022-09-12T12:18:06;23.20;97.50
55211;DHT22;41082;52.822;6.666;2022-09-12T12:20:32;23.20;97.10
55211;DHT22;41082;52.822;6.666;2022-09-12T12:22:58;23.20;97.20
55211;DHT22;41082;52.822;6.666;2022-09-12T12:25:38;23.20;97.60
55211;DHT22;41082;52.822;6.666;2022-09-12T12:28:04;23.20;98.00
55211;DHT22;41082;52.822;6.666;2022-09-12T12:35:39;23.20;98.10
55211;DHT22;41082;52.822;6.666;2022-09-12T12:38:28;23.20;97.90
55211;DHT22;41082;52.822;6.666;2022-09-12T12:43:46;23.10;97.40
55211;DHT22;41082;52.822;6.666;2022-09-12T12:46:14;23.20;97.80
55211;DHT22;41082;52.822;6.666;2022-09-12T12:48:50;23.20;98.50
55211;DHT22;41082;52.822;6.666;2022-09-12T12:51:31;23.30;98.40
55211;DHT22;41082;52.822;6.666;2022-09-12T12:54:00;23.30;98.10
55211;DHT22;41082;52.822;6.666;2022-09-12T12:56:38;23.30;98.00
55211;DHT22;41082;52.822;6.666;2022-09-12T12:59:18;23.40;97.80
55211;DHT22;41082;52.822;6.666;2022-09-12T13:01:52;23.50;97.80
55211;DHT22;41082;52.822;6.666;2022-09-12T13:04:20;23.50;97.50
55211;DHT22;41082;52.822;6.666;2022-09-12T13:07:03;23.50;97.00
55211;DHT22;41082;52.822;6.666;2022-09-12T13:09:44;23.50;96.30
55211;DHT22;41082;52.822;6.666;2022-09-12T13:12:22;23.50;96.30
55211;DHT22;41082;52.822;6.666;2022-09-12T13:14:52;23.50;96.40
55211;DHT22;41082;52.822;6.666;2022-09-12T13:17:42;23.50;95.90
55211;DHT22;41082;52.822;6.666;2022-09-12T13:22:39;23.60;96.50
55211;DHT22;41082;52.822;6.666;2022-09-12T13:30:39;23.60;95.80
55211;DHT22;41082;52.822;6.666;2022-09-12T13:38:32;23.60;96.20
55211;DHT22;41082;52.822;6.666;2022-09-12T13:41:12;23.60;95.80
55211;DHT22;41082;52.822;6.666;2022-09-12T13:43:41;23.60;95.40
55211;DHT22;41082;52.822;6.666;2022-09-12T13:46:09;23.60;95.10
55211;DHT22;41082;52.822;6.666;2022-09-12T13:48:38;23.70;94.90
55211;DHT22;41082;52.822;6.666;2022-09-12T13:51:04;23.70;94.70
55211;DHT22;41082;52.822;6.666;2022-09-12T13:53:45;23.80;94.50
55211;DHT22;41082;52.822;6.666;2022-09-12T13:56:14;23.80;94.60
55211;DHT22;41082;52.822;6.666;2022-09-12T13:58:59;23.80;95.10
55211;DHT22;41082;52.822;6.666;2022-09-12T14:01:55;23.80;94.40
55211;DHT22;41082;52.822;6.666;2022-09-12T14:04:23;23.80;93.90
55211;DHT22;41082;52.822;6.666;2022-09-12T14:07:12;23.80;93.20
55211;DHT22;41082;52.822;6.666;2022-09-12T14:09:40;23.80;93.20
55211;DHT22;41082;52.822;6.666;2022-09-12T14:12:18;23.80;93.20
55211;DHT22;41082;52.822;6.666;2022-09-12T14:14:48;23.80;94.20
55211;DHT22;41082;52.822;6.666;2022-09-12T14:17:16;23.90;94.50
55211;DHT22;41082;52.822;6.666;2022-09-12T14:19:43;23.90;94.20
55211;DHT22;41082;52.822;6.666;2022-09-12T14:22:12;23.90;93.50
55211;DHT22;41082;52.822;6.666;2022-09-12T14:24:46;23.90;92.90
55211;DHT22;41082;52.822;6.666;2022-09-12T14:27:24;23.90;92.40
55211;DHT22;41082;52.822;6.666;2022-09-12T14:30:05;24.00;92.00
55211;DHT22;41082;52.822;6.666;2022-09-12T14:32:34;24.00;92.00
55211;DHT22;41082;52.822;6.666;2022-09-12T14:35:19;24.00;92.20
55211;DHT22;41082;52.822;6.666;2022-09-12T14:37:48;24.00;92.50
55211;DHT22;41082;52.822;6.666;2022-09-12T14:40:19;24.00;92.70
55211;DHT22;41082;52.822;6.666;2022-09-12T14:42:49;24.00;93.10
55211;DHT22;41082;52.822;6.666;2022-09-12T14:45:31;24.00;92.90
55211;DHT22;41082;52.822;6.666;2022-09-12T14:47:57;24.00;92.20
55211;DHT22;41082;52.822;6.666;2022-09-12T14:50:25;23.90;92.20
55211;DHT22;41082;52.822;6.666;2022-09-12T14:53:22;23.90;92.30
55211;DHT22;41082;52.822;6.666;2022-09-12T14:56:06;23.90;91.80
55211;DHT22;41082;52.822;6.666;2022-09-12T14:58:32;23.90;90.30
55211;DHT22;41082;52.822;6.666;2022-09-12T15:06:17;23.80;92.20
55211;DHT22;41082;52.822;6.666;2022-09-12T15:08:44;23.80;92.50
55211;DHT22;41082;52.822;6.666;2022-09-12T15:11:10;23.80;92.60
55211;DHT22;41082;52.822;6.666;2022-09-12T15:13:40;23.70;91.60
55211;DHT22;41082;52.822;6.666;2022-09-12T15:16:10;23.70;91.40
55211;DHT22;41082;52.822;6.666;2022-09-12T15:18:36;23.60;91.30
55211;DHT22;41082;52.822;6.666;2022-09-12T15:21:04;23.60;91.20
55211;DHT22;41082;52.822;6.666;2022-09-12T15:23:44;23.60;91.60
55211;DHT22;41082;52.822;6.666;2022-09-12T15:26:19;23.60;91.60
55211;DHT22;41082;52.822;6.666;2022-09-12T15:28:46;23.60;92.20
55211;DHT22;41082;52.822;6.666;2022-09-12T15:31:25;23.60;92.30
55211;DHT22;41082;52.822;6.666;2022-09-12T15:33:51;23.60;92.10
55211;DHT22;41082;52.822;6.666;2022-09-12T15:36:19;23.50;92.30
55211;DHT22;41082;52.822;6.666;2022-09-12T15:38:45;23.50;92.10
55211;DHT22;41082;52.822;6.666;2022-09-12T15:41:19;23.50;91.50
55211;DHT22;41082;52.822;6.666;2022-09-12T15:43:46;23.50;91.80
55211;DHT22;41082;52.822;6.666;2022-09-12T15:46:13;23.50;92.30
55211;DHT22;41082;52.822;6.666;2022-09-12T15:48:39;23.50;92.30
55211;DHT22;41082;52.822;6.666;2022-09-12T15:51:12;23.50;91.90
55211;DHT22;41082;52.822;6.666;2022-09-12T15:53:38;23.40;91.30
55211;DHT22;41082;52.822;6.666;2022-09-12T15:56:04;23.40;91.20
55211;DHT22;41082;52.822;6.666;2022-09-12T15:58:30;23.30;91.30
55211;DHT22;41082;52.822;6.666;2022-09-12T16:00:55;23.40;91.60
55211;DHT22;41082;52.822;6.666;2022-09-12T16:03:24;23.30;91.20
55211;DHT22;41082;52.822;6.666;2022-09-12T16:05:55;23.30;91.40
55211;DHT22;41082;52.822;6.666;2022-09-12T16:08:21;23.30;91.70
55211;DHT22;41082;52.822;6.666;2022-09-12T16:10:50;23.20;92.00
55211;DHT22;41082;52.822;6.666;2022-09-12T16:13:17;23.10;91.80
55211;DHT22;41082;52.822;6.666;2022-09-12T16:15:42;23.00;91.90
55211;DHT22;41082;52.822;6.666;2022-09-12T16:18:08;23.00;92.00
55211;DHT22;41082;52.822;6.666;2022-09-12T16:20:34;22.90;92.10
55211;DHT22;41082;52.822;6.666;2022-09-12T16:22:59;22.90;92.30
55211;DHT22;41082;52.822;6.666;2022-09-12T16:25:25;22.80;92.60
55211;DHT22;41082;52.822;6.666;2022-09-12T16:27:51;22.80;93.00
55211;DHT22;41082;52.822;6.666;2022-09-12T16:30:16;22.80;92.90
55211;DHT22;41082;52.822;6.666;2022-09-12T16:32:42;22.70;92.60
55211;DHT22;41082;52.822;6.666;2022-09-12T16:35:08;22.70;92.70
55211;DHT22;41082;52.822;6.666;2022-09-12T16:37:34;22.60;92.90
55211;DHT22;41082;52.822;6.666;2022-09-12T16:40:00;22.60;93.00
55211;DHT22;41082;52.822;6.666;2022-09-12T16:42:26;22.60;93.20
55211;DHT22;41082;52.822;6.666;2022-09-12T16:44:52;22.50;93.40
55211;DHT22;41082;52.822;6.666;2022-09-12T16:47:17;22.50;93.30
55211;DHT22;41082;52.822;6.666;2022-09-12T16:49:43;22.50;93.50
55211;DHT22;41082;52.822;6.666;2022-09-12T16:52:08;22.50;93.90
55211;DHT22;41082;52.822;6.666;2022-09-12T16:54:35;22.40;94.10
55211;DHT22;41082;52.822;6.666;2022-09-12T16:57:01;22.40;94.40
55211;DHT22;41082;52.822;6.666;2022-09-12T16:59:29;22.30;94.40
55211;DHT22;41082;52.822;6.666;2022-09-12T17:01:55;22.30;94.50
55211;DHT22;41082;52.822;6.666;2022-09-12T17:04:21;22.30;94.50
55211;DHT22;41082;52.822;6.666;2022-09-12T17:06:47;22.20;94.40
55211;DHT22;41082;52.822;6.666;2022-09-12T17:09:13;22.10;94.20
55211;DHT22;41082;52.822;6.666;2022-09-12T17:11:44;22.10;94.30
55211;DHT22;41082;52.822;6.666;2022-09-12T17:14:09;22.00;94.30
55211;DHT22;41082;52.822;6.666;2022-09-12T17:16:38;21.90;94.60
55211;DHT22;41082;52.822;6.666;2022-09-12T17:19:05;21.90;94.80
55211;DHT22;41082;52.822;6.666;2022-09-12T17:21:31;21.90;95.10
55211;DHT22;41082;52.822;6.666;2022-09-12T17:23:57;21.80;95.20
55211;DHT22;41082;52.822;6.666;2022-09-12T17:26:23;21.80;95.40
55211;DHT22;41082;52.822;6.666;2022-09-12T17:28:49;21.70;95.60
55211;DHT22;41082;52.822;6.666;2022-09-12T17:31:15;21.70;95.70
55211;DHT22;41082;52.822;6.666;2022-09-12T17:33:41;21.60;95.80
55211;DHT22;41082;52.822;6.666;2022-09-12T17:36:09;21.60;95.80
55211;DHT22;41082;52.822;6.666;2022-09-12T17:38:37;21.50;96.00
55211;DHT22;41082;52.822;6.666;2022-09-12T17:41:30;21.50;96.20
55211;DHT22;41082;52.822;6.666;2022-09-12T17:43:57;21.40;96.30
55211;DHT22;41082;52.822;6.666;2022-09-12T17:46:31;21.40;96.50
55211;DHT22;41082;52.822;6.666;2022-09-12T17:48:58;21.40;96.60
55211;DHT22;41082;52.822;6.666;2022-09-12T17:51:26;21.40;96.70